KSBN/SBN METAR and TAF weather

Enter ICAO airport designator
Station Type Date Time Source
KSBN METAR 2021/01/20 22:54 UTC NOAA

KSBN 202254Z 19012KT 10SM CLR M03/M10 A2995 RMK AO2 PRESFR SLP155 T10331100


Station Type Date Time Source
KSBN Decoded METAR 2021/01/20 22:54 UTC NOAA

SOUTH BEND REGIONAL AIRPORT, IN, United States (KSBN) 41-42N 086-19W 237M
Jan 20, 2021 - 05:54 PM EST / 2021.01.20 2254 UTC
Wind: from the S (190 degrees) at 14 MPH (12 KT):0
Visibility: 10 mile(s):0
Sky conditions: clear
Temperature: 26.1 F (-3.3 C)
Windchill: 14 F (-10 C):1
Dew Point: 14.0 F (-10.0 C)
Relative Humidity: 59%
Pressure (altimeter): 29.95 in. Hg (1014 hPa)
Pressure tendency: falling rapidly
ob: KSBN 202254Z 19012KT 10SM CLR M03/M10 A2995 RMK AO2 PRESFR SLP155 T10331100
cycle: 23

Station Type Date Time Source
KSBN TAF 2021/01/20 18:28 UTC NOAA

TAF KSBN 201726Z 2018/2118 23011KT P6SM SCT250
FM202300 21017G26KT P6SM FEW250 WS020/24050KT
FM210700 21015KT P6SM SCT250

Example: see airport list